Time;durP1;ratioP1;P1;durP2;ratioP2;P2;SDS_P1;SDS_P2;PMS_P1;PMS_P2;Temp;Humidity;BMP_temperature;BMP_pressure;BME280_temperature;BME280_humidity;BME280_pressure;Samples;Min_cycle;Max_cycle;Signal;HPM_P1;HPM_P2
2023/01/21 00:01:24;;;;;;;;;;;;;;;-7.73;100.00;96912.69;5022245;28;19928;-73
2023/01/21 00:03:51;;;;;;;;;;;;;;;-7.45;100.00;96913.59;5045562;28;19924;-72
2023/01/21 00:06:17;;;;;;;;;;;;;;;-7.24;100.00;96909.34;5021900;28;20381;-72
2023/01/21 00:08:42;;;;;;;;;;;;;;;-7.08;100.00;96918.31;5027177;28;20404;-73
2023/01/21 00:11:15;;;;;;;;;;;;;;;-7.03;100.00;96916.53;5021790;28;19952;-73
2023/01/21 00:13:40;;;;;;;;;;;;;;;-6.98;100.00;96913.91;5043729;28;19959;-72
2023/01/21 00:16:06;;;;;;;;;;;;;;;-6.92;100.00;96907.59;5038024;28;19924;-72
2023/01/21 00:18:32;;;;;;;;;;;;;;;-7.01;100.00;96909.09;5026090;28;19924;-73
2023/01/21 00:20:57;;;;;;;;;;;;;;;-7.02;100.00;96909.31;5025391;28;19917;-71
2023/01/21 00:23:22;;;;;;;;;;;;;;;-7.02;100.00;96915.47;5044493;28;19962;-70
2023/01/21 00:25:48;;;;;;;;;;;;;;;-7.02;100.00;96914.66;5034556;28;19923;-71
2023/01/21 00:28:13;;;;;;;;;;;;;;;-6.92;100.00;96912.13;5017290;28;19917;-72
2023/01/21 00:30:40;;;;;;;;;;;;;;;-6.93;100.00;96918.50;5043229;28;19920;-72
2023/01/21 00:33:05;;;;;;;;;;;;;;;-7.05;100.00;96915.97;5021179;28;20482;-73
2023/01/21 00:35:31;;;;;;;;;;;;;;;-7.09;100.00;96922.84;5042802;28;19917;-74
2023/01/21 00:37:56;;;;;;;;;;;;;;;-7.05;100.00;96905.31;5044501;28;19917;-73
2023/01/21 00:40:21;;;;;;;;;;;;;;;-7.11;100.00;96909.78;5021470;28;20971;-73
2023/01/21 00:42:47;;;;;;;;;;;;;;;-7.05;100.00;96907.19;5053476;28;19917;-71
2023/01/21 00:45:12;;;;;;;;;;;;;;;-7.08;100.00;96908.47;5039415;28;20007;-72
2023/01/21 00:47:37;;;;;;;;;;;;;;;-7.16;100.00;96908.91;5062787;28;19920;-71
2023/01/21 00:50:03;;;;;;;;;;;;;;;-7.31;100.00;96906.84;5061279;28;19962;-72
2023/01/21 00:52:28;;;;;;;;;;;;;;;-7.28;100.00;96916.22;5045073;28;20419;-72
2023/01/21 00:54:53;;;;;;;;;;;;;;;-7.42;100.00;96905.13;5062452;28;19935;-72
2023/01/21 00:57:19;;;;;;;;;;;;;;;-7.45;100.00;96910.91;5041043;28;20041;-72
2023/01/21 00:59:44;;;;;;;;;;;;;;;-7.56;100.00;96910.81;5046441;28;19921;-74
2023/01/21 01:02:09;;;;;;;;;;;;;;;-7.56;100.00;96902.81;5040692;28;19924;-72
2023/01/21 01:04:35;;;;;;;;;;;;;;;-7.54;100.00;96913.22;5063639;28;20328;-71
2023/01/21 01:07:00;;;;;;;;;;;;;;;-7.56;100.00;96909.97;5062251;28;19974;-74
2023/01/21 01:09:25;;;;;;;;;;;;;;;-7.62;100.00;96913.63;5040059;28;20439;-72
2023/01/21 01:11:51;;;;;;;;;;;;;;;-7.53;100.00;96907.63;5044547;28;19920;-75
2023/01/21 01:14:17;;;;;;;;;;;;;;;-7.59;100.00;96913.16;5038270;28;19947;-74
2023/01/21 01:16:42;;;;;;;;;;;;;;;-7.70;100.00;96913.00;5044695;28;19921;-72
2023/01/21 01:19:08;;;;;;;;;;;;;;;-7.87;100.00;96914.88;5040849;28;19916;-74
2023/01/21 01:21:33;;;;;;;;;;;;;;;-7.93;100.00;96910.53;5064152;28;19924;-73
2023/01/21 01:24:01;;;;;;;;;;;;;;;-7.78;100.00;96909.94;5037512;28;19921;-72
2023/01/21 01:26:27;;;;;;;;;;;;;;;-7.80;100.00;96907.53;5022316;28;19928;-72
2023/01/21 01:28:52;;;;;;;;;;;;;;;-7.89;100.00;96917.78;5024910;28;19932;-74
2023/01/21 01:31:18;;;;;;;;;;;;;;;-8.90;100.00;96926.44;5036894;28;20255;-74
2023/01/21 01:33:44;;;;;;;;;;;;;;;-9.59;100.00;96936.19;5025153;28;19923;-74
2023/01/21 01:36:11;;;;;;;;;;;;;;;-9.59;100.00;96925.59;5046022;28;19970;-71
2023/01/21 01:38:37;;;;;;;;;;;;;;;-9.63;100.00;96934.00;5044214;28;19920;-71
2023/01/21 01:41:03;;;;;;;;;;;;;;;-9.64;100.00;96942.97;5055567;28;19928;-71
2023/01/21 01:43:47;;;;;;;;;;;;;;;-9.87;100.00;96935.81;5065336;28;19979;-72
2023/01/21 01:46:12;;;;;;;;;;;;;;;-9.94;100.00;96935.13;5058105;28;19917;-72
2023/01/21 01:48:38;;;;;;;;;;;;;;;-9.82;100.00;96938.59;5043937;28;20074;-71
2023/01/21 01:51:06;;;;;;;;;;;;;;;-9.45;100.00;96932.25;5058321;28;19923;-69
2023/01/21 01:53:32;;;;;;;;;;;;;;;-9.30;100.00;96929.91;5063076;28;19939;-74
2023/01/21 01:55:58;;;;;;;;;;;;;;;-9.21;100.00;96935.66;5044448;28;19951;-72
2023/01/21 01:58:24;;;;;;;;;;;;;;;-9.16;100.00;96933.13;5039609;28;20866;-71
2023/01/21 02:00:49;;;;;;;;;;;;;;;-9.12;100.00;96934.25;5045287;28;20003;-74
2023/01/21 02:05:59;;;;;;;;;;;;;;;-9.15;100.00;96926.75;5063344;28;19928;-71
2023/01/21 02:08:25;;;;;;;;;;;;;;;-9.11;100.00;96937.69;5037512;28;19920;-72
2023/01/21 02:10:52;;;;;;;;;;;;;;;-9.06;100.00;96930.66;5062434;28;19923;-74
2023/01/21 02:13:18;;;;;;;;;;;;;;;-9.04;100.00;96935.72;5039332;28;20300;-72
2023/01/21 02:15:43;;;;;;;;;;;;;;;-9.02;100.00;96932.84;5062073;28;20007;-73
2023/01/21 02:18:12;;;;;;;;;;;;;;;-8.97;100.00;96938.25;5057204;28;19948;-73
2023/01/21 02:20:52;;;;;;;;;;;;;;;-8.95;100.00;96934.31;5044907;28;19922;-71
2023/01/21 02:23:21;;;;;;;;;;;;;;;-8.95;100.00;96936.97;5039831;28;19916;-72
2023/01/21 02:25:57;;;;;;;;;;;;;;;-8.80;100.00;96933.81;5061634;28;19920;-72
2023/01/21 02:28:35;;;;;;;;;;;;;;;-8.53;100.00;96931.38;5055423;28;19925;-75
2023/01/21 02:31:03;;;;;;;;;;;;;;;-8.37;100.00;96935.09;5042113;28;19934;-74
2023/01/21 02:33:33;;;;;;;;;;;;;;;-8.15;100.00;96932.53;5043958;28;19963;-73
2023/01/21 02:36:14;;;;;;;;;;;;;;;-8.14;100.00;96933.31;5024897;28;20452;-75
2023/01/21 02:38:39;;;;;;;;;;;;;;;-8.35;100.00;96940.16;5042533;28;19923;-73
2023/01/21 02:41:10;;;;;;;;;;;;;;;-8.46;100.00;96940.00;5021008;28;20011;-72
2023/01/21 02:43:54;;;;;;;;;;;;;;;-8.24;100.00;96935.81;5057385;28;19921;-73
2023/01/21 02:46:30;;;;;;;;;;;;;;;-8.35;100.00;96943.63;5019078;28;19920;-73
2023/01/21 02:48:57;;;;;;;;;;;;;;;-8.23;100.00;96927.59;5041275;28;19916;-73
2023/01/21 02:51:22;;;;;;;;;;;;;;;-8.10;100.00;96931.81;5002253;28;20147;-73
2023/01/21 02:53:48;;;;;;;;;;;;;;;-8.04;100.00;96938.81;5040259;28;20005;-73
2023/01/21 02:56:16;;;;;;;;;;;;;;;-7.97;100.00;96938.66;5029522;28;19925;-72
2023/01/21 02:58:46;;;;;;;;;;;;;;;-8.08;100.00;96937.69;5061294;28;19917;-73
2023/01/21 03:01:12;;;;;;;;;;;;;;;-8.15;100.00;96943.16;5052961;28;19920;-72
2023/01/21 03:03:49;;;;;;;;;;;;;;;-8.08;100.00;96940.34;5039023;28;19916;-75
2023/01/21 03:06:30;;;;;;;;;;;;;;;-8.04;100.00;96936.16;5036142;28;19920;-72
2023/01/21 03:08:57;;;;;;;;;;;;;;;-8.03;100.00;96940.44;5026454;28;19921;-72
2023/01/21 03:11:23;;;;;;;;;;;;;;;-8.04;100.00;96943.31;5023197;28;19972;-73
2023/01/21 03:19:22;;;;;;;;;;;;;;;-8.34;100.00;96947.88;5040602;28;19921;-72
2023/01/21 03:21:47;;;;;;;;;;;;;;;-9.15;100.00;96945.31;5028264;28;19920;-72
2023/01/21 03:24:13;;;;;;;;;;;;;;;-9.26;100.00;96946.16;5021622;28;20057;-73
2023/01/21 03:26:41;;;;;;;;;;;;;;;-9.17;100.00;96947.41;5045246;28;20441;-73
2023/01/21 03:29:09;;;;;;;;;;;;;;;-9.10;100.00;96948.09;5038584;28;20453;-73
2023/01/21 03:31:36;;;;;;;;;;;;;;;-9.01;100.00;96942.44;5027403;28;19924;-73
2023/01/21 03:34:05;;;;;;;;;;;;;;;-9.04;100.00;96943.69;5044871;28;19931;-74
2023/01/21 03:36:36;;;;;;;;;;;;;;;-9.01;100.00;96935.25;5041890;28;19921;-73
2023/01/21 03:39:06;;;;;;;;;;;;;;;-9.01;100.00;96940.56;5045158;28;19920;-74
2023/01/21 03:41:35;;;;;;;;;;;;;;;-8.97;100.00;96931.09;5026774;28;19921;-74
2023/01/21 03:44:00;;;;;;;;;;;;;;;-9.00;100.00;96938.72;5044119;28;20423;-74
2023/01/21 03:46:33;;;;;;;;;;;;;;;-9.02;100.00;96938.94;5045398;28;20008;-74
2023/01/21 03:49:22;;;;;;;;;;;;;;;-9.06;100.00;96938.59;5011637;28;19951;-74
2023/01/21 03:51:50;;;;;;;;;;;;;;;-9.08;100.00;96943.34;5005023;28;19921;-74
2023/01/21 03:54:15;;;;;;;;;;;;;;;-9.11;100.00;96945.66;5027082;28;19917;-73
2023/01/21 03:56:40;;;;;;;;;;;;;;;-9.07;100.00;96946.81;5026807;28;19929;-73
2023/01/21 03:59:06;;;;;;;;;;;;;;;-9.05;100.00;96936.78;5019752;28;20343;-73
2023/01/21 04:01:31;;;;;;;;;;;;;;;-9.05;100.00;96944.75;5023611;28;19921;-74
2023/01/21 04:03:56;;;;;;;;;;;;;;;-9.04;100.00;96944.50;5033745;28;19957;-74
2023/01/21 04:06:22;;;;;;;;;;;;;;;-8.90;100.00;96945.03;5019802;28;19925;-73
2023/01/21 04:08:47;;;;;;;;;;;;;;;-8.81;100.00;96934.84;5038030;28;19921;-74
2023/01/21 04:11:13;;;;;;;;;;;;;;;-8.87;100.00;96941.91;5037230;28;19924;-72
2023/01/21 04:13:38;;;;;;;;;;;;;;;-8.91;100.00;96946.09;5026824;28;20027;-71
2023/01/21 04:16:04;;;;;;;;;;;;;;;-8.98;100.00;96948.06;5018859;28;19924;-73
2023/01/21 04:18:30;;;;;;;;;;;;;;;-9.05;100.00;96944.75;5022991;28;19925;-72
2023/01/21 04:20:55;;;;;;;;;;;;;;;-9.10;100.00;96953.41;5023073;28;19921;-72
2023/01/21 04:23:21;;;;;;;;;;;;;;;-9.11;100.00;96961.59;5022369;28;20772;-74
2023/01/21 04:25:48;;;;;;;;;;;;;;;-9.16;100.00;96946.38;5024335;28;20004;-72
2023/01/21 04:28:13;;;;;;;;;;;;;;;-9.16;100.00;96945.56;5020955;28;20346;-74
2023/01/21 04:30:39;;;;;;;;;;;;;;;-9.15;100.00;96949.84;5026223;28;20305;-72
2023/01/21 04:33:04;;;;;;;;;;;;;;;-9.20;100.00;96939.94;5039914;28;19917;-72
2023/01/21 04:35:29;;;;;;;;;;;;;;;-9.19;100.00;96948.69;5025385;28;20012;-72
2023/01/21 04:37:55;;;;;;;;;;;;;;;-9.21;100.00;96946.28;5044074;28;20015;-72
2023/01/21 04:40:20;;;;;;;;;;;;;;;-9.18;100.00;96951.13;5037870;28;19921;-73
2023/01/21 04:42:45;;;;;;;;;;;;;;;-9.13;100.00;96955.72;5043955;28;20386;-73
2023/01/21 04:45:11;;;;;;;;;;;;;;;-9.04;100.00;96965.75;5049203;28;19952;-74
2023/01/21 04:47:39;;;;;;;;;;;;;;;-9.06;100.00;96956.38;5062330;28;19923;-74
2023/01/21 04:50:04;;;;;;;;;;;;;;;-9.09;100.00;96959.50;5040492;28;19917;-73
2023/01/21 04:52:30;;;;;;;;;;;;;;;-9.10;100.00;96956.03;5064107;28;19924;-74
2023/01/21 04:54:55;;;;;;;;;;;;;;;-8.95;100.00;96952.09;5055784;28;20282;-74
2023/01/21 04:57:20;;;;;;;;;;;;;;;-8.67;100.00;96957.41;5053808;28;20008;-74
2023/01/21 04:59:46;;;;;;;;;;;;;;;-8.34;100.00;96963.81;5042215;28;19917;-75
2023/01/21 05:02:11;;;;;;;;;;;;;;;-8.26;100.00;96954.66;5034243;28;19921;-75
2023/01/21 05:04:36;;;;;;;;;;;;;;;-8.21;100.00;96957.41;5057070;28;19952;-74
2023/01/21 05:07:02;;;;;;;;;;;;;;;-8.36;100.00;96963.25;5033948;28;19927;-74
2023/01/21 05:09:27;;;;;;;;;;;;;;;-8.09;100.00;96959.97;5016729;28;19920;-74
2023/01/21 05:11:52;;;;;;;;;;;;;;;-8.47;100.00;96967.59;5050695;28;19923;-73
2023/01/21 05:14:18;;;;;;;;;;;;;;;-8.54;100.00;96966.16;5020369;28;20290;-74
2023/01/21 05:16:43;;;;;;;;;;;;;;;-8.63;100.00;96963.06;5043583;28;19967;-73
2023/01/21 05:19:08;;;;;;;;;;;;;;;-8.71;100.00;96955.50;5041336;28;19921;-74
2023/01/21 05:21:34;;;;;;;;;;;;;;;-8.75;100.00;96949.84;5032820;28;19920;-74
2023/01/21 05:23:59;;;;;;;;;;;;;;;-8.29;100.00;96955.13;5031822;28;19928;-73
2023/01/21 05:26:24;;;;;;;;;;;;;;;-8.19;100.00;96960.63;5056047;28;19952;-73
2023/01/21 05:28:49;;;;;;;;;;;;;;;-8.09;100.00;96957.31;5073616;28;20301;-72
2023/01/21 05:31:15;;;;;;;;;;;;;;;-8.22;100.00;96962.97;5049481;28;19917;-74
2023/01/21 05:33:42;;;;;;;;;;;;;;;-8.17;100.00;96971.81;5022236;28;19955;-73
2023/01/21 05:36:08;;;;;;;;;;;;;;;-8.28;100.00;96964.72;5003874;28;19923;-74
2023/01/21 05:38:33;;;;;;;;;;;;;;;-8.27;100.00;96969.78;5026125;28;20328;-73
2023/01/21 05:41:00;;;;;;;;;;;;;;;-8.33;100.00;96968.09;5044041;28;19925;-73
2023/01/21 05:43:25;;;;;;;;;;;;;;;-8.51;100.00;96968.34;5027526;28;19967;-73
2023/01/21 05:45:51;;;;;;;;;;;;;;;-8.38;100.00;96973.31;5052177;28;19960;-73
2023/01/21 05:48:16;;;;;;;;;;;;;;;-8.48;100.00;96975.81;5060951;28;20369;-71
2023/01/21 05:50:41;;;;;;;;;;;;;;;-8.87;100.00;96976.41;5063373;28;19928;-72
2023/01/21 05:53:07;;;;;;;;;;;;;;;-9.00;100.00;96974.03;5069671;28;19921;-73
2023/01/21 05:55:32;;;;;;;;;;;;;;;-9.08;100.00;96971.75;5023591;28;19917;-76
2023/01/21 05:57:57;;;;;;;;;;;;;;;-9.13;100.00;96972.44;5048957;28;20416;-73
2023/01/21 06:00:23;;;;;;;;;;;;;;;-9.11;100.00;96972.19;5017363;28;20300;-74
2023/01/21 06:02:48;;;;;;;;;;;;;;;-9.10;100.00;96969.31;5044363;28;19920;-73
2023/01/21 06:05:14;;;;;;;;;;;;;;;-9.13;100.00;96974.28;5038823;28;19920;-74
2023/01/21 06:07:39;;;;;;;;;;;;;;;-9.14;100.00;96980.66;5062033;28;20020;-75
2023/01/21 06:10:05;;;;;;;;;;;;;;;-9.10;100.00;96971.97;5054979;28;19952;-75
2023/01/21 06:12:30;;;;;;;;;;;;;;;-9.06;100.00;96977.63;5060709;28;19966;-73
2023/01/21 06:14:55;;;;;;;;;;;;;;;-9.15;100.00;96977.16;5057656;28;19904;-74
2023/01/21 06:17:21;;;;;;;;;;;;;;;-9.25;100.00;96976.97;5057374;28;19929;-75
2023/01/21 06:19:46;;;;;;;;;;;;;;;-9.29;100.00;96976.63;5060279;28;20385;-73
2023/01/21 06:22:14;;;;;;;;;;;;;;;-9.30;100.00;96977.66;5057335;28;19931;-73
2023/01/21 06:24:40;;;;;;;;;;;;;;;-9.28;100.00;96977.44;5053290;28;19917;-72
2023/01/21 06:27:05;;;;;;;;;;;;;;;-9.21;100.00;96979.97;5019287;28;19924;-72
2023/01/21 06:29:30;;;;;;;;;;;;;;;-9.07;100.00;96981.31;5046999;28;19917;-73
2023/01/21 06:31:55;;;;;;;;;;;;;;;-8.77;100.00;96981.09;5040815;28;19971;-71
2023/01/21 06:34:21;;;;;;;;;;;;;;;-8.63;100.00;96978.19;5049988;28;20532;-73
2023/01/21 06:36:46;;;;;;;;;;;;;;;-8.61;100.00;96976.91;5047771;28;20447;-73
2023/01/21 06:39:11;;;;;;;;;;;;;;;-8.31;100.00;96975.81;5038102;28;19971;-73
2023/01/21 06:41:37;;;;;;;;;;;;;;;-8.24;100.00;96981.81;5023879;28;19922;-73
2023/01/21 06:44:03;;;;;;;;;;;;;;;-8.16;100.00;96984.06;5021904;28;19921;-75
2023/01/21 06:46:28;;;;;;;;;;;;;;;-7.86;100.00;96985.63;5059218;28;19952;-74
2023/01/21 06:48:53;;;;;;;;;;;;;;;-7.92;100.00;96983.94;5060754;28;20007;-73
2023/01/21 06:51:18;;;;;;;;;;;;;;;-7.95;100.00;96995.03;5054768;28;19927;-73
2023/01/21 06:53:44;;;;;;;;;;;;;;;-7.93;100.00;97001.72;5058433;28;20443;-72
2023/01/21 06:56:09;;;;;;;;;;;;;;;-7.98;100.00;96998.97;5047435;28;19920;-73
2023/01/21 06:58:34;;;;;;;;;;;;;;;-7.89;100.00;97002.03;5042260;28;20003;-74
2023/01/21 07:00:59;;;;;;;;;;;;;;;-7.86;100.00;97012.22;5022788;28;19924;-72
2023/01/21 07:03:25;;;;;;;;;;;;;;;-8.07;100.00;97016.38;5016106;28;19944;-72
2023/01/21 07:05:50;;;;;;;;;;;;;;;-8.03;100.00;97016.69;5023219;28;19943;-75
2023/01/21 07:08:16;;;;;;;;;;;;;;;-8.06;100.00;97012.69;5015708;28;19986;-71
2023/01/21 07:10:41;;;;;;;;;;;;;;;-8.11;100.00;97023.22;5023628;28;20035;-71
2023/01/21 07:13:06;;;;;;;;;;;;;;;-7.86;100.00;97017.53;5036146;28;19924;-68
2023/01/21 07:15:32;;;;;;;;;;;;;;;-7.73;100.00;97011.09;5022755;28;19923;-69
2023/01/21 07:17:57;;;;;;;;;;;;;;;-7.67;100.00;97015.41;5039551;28;19921;-68
2023/01/21 07:20:22;;;;;;;;;;;;;;;-7.43;100.00;97021.41;5035497;28;20666;-69
2023/01/21 07:22:47;;;;;;;;;;;;;;;-7.33;100.00;97018.91;5040702;28;19943;-69
2023/01/21 07:25:13;;;;;;;;;;;;;;;-7.12;100.00;97027.97;5033895;28;19920;-68
2023/01/21 07:27:39;;;;;;;;;;;;;;;-6.98;100.00;97023.09;5040995;28;19924;-69
2023/01/21 07:30:05;;;;;;;;;;;;;;;-6.99;100.00;97026.00;5036257;28;20381;-67
2023/01/21 07:32:30;;;;;;;;;;;;;;;-6.86;100.00;97015.00;5041246;28;19975;-72
2023/01/21 07:34:55;;;;;;;;;;;;;;;-7.26;100.00;97024.03;5023356;28;19940;-70
2023/01/21 07:37:21;;;;;;;;;;;;;;;-6.99;100.00;97016.16;5057298;28;19928;-70
2023/01/21 07:39:46;;;;;;;;;;;;;;;-6.86;100.00;97020.34;5061719;28;20342;-71
2023/01/21 07:42:11;;;;;;;;;;;;;;;-6.79;100.00;97014.81;5056604;28;19920;-70
2023/01/21 07:44:36;;;;;;;;;;;;;;;-6.57;100.00;97014.81;5033342;28;20392;-71
2023/01/21 07:47:02;;;;;;;;;;;;;;;-6.48;100.00;97017.81;5055329;28;19916;-74
2023/01/21 07:49:27;;;;;;;;;;;;;;;-6.15;100.00;97016.88;5038688;28;19917;-71
2023/01/21 07:51:56;;;;;;;;;;;;;;;-5.96;100.00;97023.47;5038526;28;20008;-70
2023/01/21 07:54:21;;;;;;;;;;;;;;;-5.65;100.00;97015.69;5036763;28;20480;-71
2023/01/21 07:56:46;;;;;;;;;;;;;;;-5.32;100.00;97016.47;5035952;28;19991;-71
2023/01/21 07:59:12;;;;;;;;;;;;;;;-5.21;100.00;97012.00;5016984;28;19933;-70
2023/01/21 08:01:38;;;;;;;;;;;;;;;-4.75;100.00;97014.09;5024370;28;19924;-71
2023/01/21 08:04:03;;;;;;;;;;;;;;;-4.40;100.00;97013.47;5015330;28;19970;-73
2023/01/21 08:06:29;;;;;;;;;;;;;;;-4.11;100.00;97013.00;5023461;28;20010;-70
2023/01/21 08:08:54;;;;;;;;;;;;;;;-3.84;100.00;97013.56;5024088;28;20301;-70
2023/01/21 08:11:19;;;;;;;;;;;;;;;-3.68;99.07;97013.59;5016186;28;19917;-71
2023/01/21 08:13:44;;;;;;;;;;;;;;;-3.36;98.96;97007.97;5024456;28;19939;-68
2023/01/21 08:16:12;;;;;;;;;;;;;;;-3.63;95.95;97010.13;5017201;28;19924;-70
2023/01/21 08:18:37;;;;;;;;;;;;;;;-3.75;99.03;97015.72;5024358;28;19928;-71
2023/01/21 08:21:02;;;;;;;;;;;;;;;-3.56;99.02;97013.34;5019600;28;20386;-71
2023/01/21 08:23:28;;;;;;;;;;;;;;;-3.70;96.85;97010.38;5025868;28;19917;-68
2023/01/21 08:25:53;;;;;;;;;;;;;;;-3.77;97.66;97018.69;5024185;28;19917;-70
2023/01/21 08:28:19;;;;;;;;;;;;;;;-4.07;100.00;97019.44;5038898;28;19948;-71
2023/01/21 08:30:44;;;;;;;;;;;;;;;-3.86;100.00;97022.94;5043811;28;19978;-71
2023/01/21 08:33:09;;;;;;;;;;;;;;;-3.56;100.00;97016.03;5038154;28;19931;-71
2023/01/21 08:35:35;;;;;;;;;;;;;;;-3.18;98.81;97017.34;5025147;28;19917;-70
2023/01/21 08:38:00;;;;;;;;;;;;;;;-2.98;98.21;97018.38;5043539;28;19979;-70
2023/01/21 08:40:26;;;;;;;;;;;;;;;-2.84;95.64;97023.97;5019562;28;19948;-69
2023/01/21 08:43:01;;;;;;;;;;;;;;;-3.05;96.33;97025.91;5043378;28;20297;-68
2023/01/21 08:45:27;;;;;;;;;;;;;;;-3.15;96.75;97029.38;5016708;28;19952;-71
2023/01/21 08:47:52;;;;;;;;;;;;;;;-3.21;98.03;97033.94;5050684;28;19979;-72
2023/01/21 08:50:18;;;;;;;;;;;;;;;-3.19;97.12;97041.72;5058085;28;19916;-69
2023/01/21 08:52:49;;;;;;;;;;;;;;;-3.29;96.79;97039.84;5063145;28;20440;-70
2023/01/21 08:55:14;;;;;;;;;;;;;;;-3.56;97.98;97040.91;5058727;28;20003;-70
2023/01/21 08:57:39;;;;;;;;;;;;;;;-3.27;99.97;97051.09;5062744;28;20015;-72
2023/01/21 09:00:05;;;;;;;;;;;;;;;-3.07;99.03;97051.06;5044177;28;19923;-74
2023/01/21 09:02:30;;;;;;;;;;;;;;;-2.88;98.00;97045.16;5081862;28;19923;-71
2023/01/21 09:04:56;;;;;;;;;;;;;;;-2.99;98.84;97052.44;5077482;28;20015;-71
2023/01/21 09:07:21;;;;;;;;;;;;;;;-2.99;99.00;97048.91;5050466;28;20145;-71
2023/01/21 09:09:47;;;;;;;;;;;;;;;-3.27;100.00;97053.78;5076930;28;19916;-71
2023/01/21 09:12:12;;;;;;;;;;;;;;;-4.09;100.00;97053.66;5042172;28;19963;-71
2023/01/21 09:14:38;;;;;;;;;;;;;;;-4.73;100.00;97054.75;5062455;28;19916;-69
2023/01/21 09:17:03;;;;;;;;;;;;;;;-4.60;100.00;97056.97;5058639;28;20340;-73
2023/01/21 09:19:28;;;;;;;;;;;;;;;-4.21;100.00;97059.25;5043054;28;19955;-68
2023/01/21 09:21:54;;;;;;;;;;;;;;;-4.45;100.00;97066.91;5043628;28;19920;-71
2023/01/21 09:24:19;;;;;;;;;;;;;;;-4.39;100.00;97059.72;5039492;28;19946;-70
2023/01/21 09:26:45;;;;;;;;;;;;;;;-4.68;100.00;97068.97;5046320;28;19921;-70
2023/01/21 09:29:10;;;;;;;;;;;;;;;-4.37;100.00;97069.09;5017821;28;19927;-70
2023/01/21 09:31:35;;;;;;;;;;;;;;;-4.03;100.00;97064.13;5005205;28;19982;-70
2023/01/21 09:34:02;;;;;;;;;;;;;;;-4.45;100.00;97062.38;5019545;28;19932;-71
2023/01/21 09:36:29;;;;;;;;;;;;;;;-3.85;100.00;97059.38;4993082;28;20305;-70
2023/01/21 09:38:54;;;;;;;;;;;;;;;-2.92;100.00;97058.31;5022841;28;19917;-70
2023/01/21 09:41:22;;;;;;;;;;;;;;;-2.91;100.00;97059.91;5017590;28;19917;-69
2023/01/21 09:44:06;;;;;;;;;;;;;;;-3.63;100.00;97061.00;5033043;28;19963;-70
2023/01/21 09:46:37;;;;;;;;;;;;;;;-3.06;100.00;97059.94;5041474;28;19996;-70
2023/01/21 09:49:05;;;;;;;;;;;;;;;-3.34;100.00;97063.97;5047862;28;19924;-71
2023/01/21 09:51:51;;;;;;;;;;;;;;;-3.04;100.00;97056.97;5040163;28;20023;-69
2023/01/21 09:54:19;;;;;;;;;;;;;;;-2.88;100.00;97058.56;5006107;28;19917;-70
2023/01/21 09:56:51;;;;;;;;;;;;;;;-3.42;100.00;97048.41;5041582;28;19978;-70
2023/01/21 09:59:32;;;;;;;;;;;;;;;-3.10;100.00;97040.91;5018407;28;19916;-70
2023/01/21 10:01:59;;;;;;;;;;;;;;;-3.29;100.00;97032.63;5024436;28;19963;-71
2023/01/21 10:04:33;;;;;;;;;;;;;;;-3.74;100.00;97039.56;5017906;28;19927;-70
2023/01/21 10:07:22;;;;;;;;;;;;;;;-3.49;100.00;97029.94;5041647;28;19927;-70
2023/01/21 10:10:03;;;;;;;;;;;;;;;-3.51;100.00;97027.53;5035346;28;19935;-71
2023/01/21 10:12:34;;;;;;;;;;;;;;;-3.28;100.00;97022.69;5040126;28;19968;-70
2023/01/21 10:15:07;;;;;;;;;;;;;;;-3.15;100.00;97010.63;5041959;28;19962;-70
2023/01/21 10:17:50;;;;;;;;;;;;;;;-3.32;100.00;97016.28;5022096;28;19921;-71
2023/01/21 10:20:31;;;;;;;;;;;;;;;-3.69;100.00;97010.13;5016894;28;19932;-70
2023/01/21 10:23:06;;;;;;;;;;;;;;;-3.56;100.00;97013.34;5041686;28;20277;-71
2023/01/21 10:25:32;;;;;;;;;;;;;;;-3.91;100.00;97010.34;5027931;28;19923;-70
2023/01/21 10:28:00;;;;;;;;;;;;;;;-4.05;100.00;97012.75;5043914;28;19917;-70
2023/01/21 10:30:28;;;;;;;;;;;;;;;-3.99;100.00;97010.91;5029546;28;20456;-71
2023/01/21 10:32:54;;;;;;;;;;;;;;;-3.92;100.00;97011.44;5041753;28;19924;-71
2023/01/21 10:35:28;;;;;;;;;;;;;;;-3.58;100.00;97018.16;5034964;28;19967;-70
2023/01/21 10:38:01;;;;;;;;;;;;;;;-3.59;100.00;97019.22;5041348;28;20436;-70
2023/01/21 10:40:42;;;;;;;;;;;;;;;-3.27;100.00;97027.00;5018517;28;19956;-70
2023/01/21 10:43:13;;;;;;;;;;;;;;;-3.22;100.00;97024.31;5036475;28;19956;-70
2023/01/21 10:46:14;;;;;;;;;;;;;;;-3.21;100.00;97025.09;5041025;28;19921;-71
2023/01/21 10:48:39;;;;;;;;;;;;;;;-2.89;100.00;97030.16;4990331;28;19922;-71
2023/01/21 10:51:25;;;;;;;;;;;;;;;-2.91;100.00;97019.69;4999893;28;19976;-72
2023/01/21 10:53:55;;;;;;;;;;;;;;;-3.04;100.00;97027.47;5061974;28;20372;-71
2023/01/21 10:56:39;;;;;;;;;;;;;;;-2.94;100.00;97030.94;5027159;28;19921;-72
2023/01/21 10:59:20;;;;;;;;;;;;;;;-3.17;100.00;97018.13;5046735;28;19916;-72
2023/01/21 11:01:47;;;;;;;;;;;;;;;-2.79;100.00;97016.72;5043553;28;19924;-71
2023/01/21 11:04:15;;;;;;;;;;;;;;;-2.94;100.00;97022.91;5037542;28;19983;-70
2023/01/21 11:06:41;;;;;;;;;;;;;;;-3.35;100.00;97016.81;5041214;28;19963;-69
2023/01/21 11:09:10;;;;;;;;;;;;;;;-3.34;100.00;97005.03;5019042;28;20019;-67
2023/01/21 11:11:37;;;;;;;;;;;;;;;-3.33;100.00;97020.00;5042233;28;19921;-72
2023/01/21 11:14:02;;;;;;;;;;;;;;;-3.77;100.00;96999.94;5039979;28;19917;-73
2023/01/21 11:16:33;;;;;;;;;;;;;;;-3.58;100.00;97034.22;5020488;28;19921;-71
2023/01/21 11:18:59;;;;;;;;;;;;;;;-3.37;100.00;97030.47;5041450;28;19955;-71
2023/01/21 11:21:24;;;;;;;;;;;;;;;-2.75;100.00;97025.81;5018472;28;20374;-72
2023/01/21 11:23:57;;;;;;;;;;;;;;;-2.71;100.00;97031.44;5049346;28;20377;-71
2023/01/21 11:26:24;;;;;;;;;;;;;;;-3.14;100.00;97028.31;5038006;28;20345;-72
2023/01/21 11:29:04;;;;;;;;;;;;;;;-3.03;100.00;97021.06;5063200;28;20431;-69
2023/01/21 11:31:30;;;;;;;;;;;;;;;-3.20;100.00;97022.16;5046044;28;19916;-72
2023/01/21 11:34:02;;;;;;;;;;;;;;;-2.91;100.00;97019.69;5049316;28;19924;-70
2023/01/21 11:36:28;;;;;;;;;;;;;;;-3.02;100.00;97014.66;5034363;28;19925;-72
2023/01/21 11:39:00;;;;;;;;;;;;;;;-2.58;100.00;97022.81;5038549;28;19936;-72
2023/01/21 11:41:26;;;;;;;;;;;;;;;-2.74;100.00;97018.56;5049568;28;19944;-72
2023/01/21 11:43:53;;;;;;;;;;;;;;;-3.04;100.00;97016.75;5033980;28;20377;-72
2023/01/21 11:46:20;;;;;;;;;;;;;;;-3.18;100.00;97016.53;5040235;28;19969;-72
2023/01/21 11:48:45;;;;;;;;;;;;;;;-2.79;100.00;97015.91;5052230;28;20007;-71
2023/01/21 11:51:10;;;;;;;;;;;;;;;-2.88;100.00;97013.00;5046520;28;20493;-71
2023/01/21 11:53:37;;;;;;;;;;;;;;;-2.09;100.00;97010.50;5044748;28;19921;-71
2023/01/21 11:56:03;;;;;;;;;;;;;;;-1.97;100.00;97013.66;5025571;28;20286;-74
2023/01/21 11:58:32;;;;;;;;;;;;;;;-2.05;100.00;97021.50;5026478;28;19974;-71
2023/01/21 12:01:01;;;;;;;;;;;;;;;-2.86;100.00;97010.84;5045071;28;19917;-71
2023/01/21 12:03:34;;;;;;;;;;;;;;;-2.75;100.00;97017.78;5041515;28;19924;-71
2023/01/21 12:05:59;;;;;;;;;;;;;;;-2.43;100.00;97007.72;5044246;28;20409;-71
2023/01/21 12:08:27;;;;;;;;;;;;;;;-2.78;100.00;97004.13;5039921;28;19928;-72
2023/01/21 12:10:55;;;;;;;;;;;;;;;-2.98;100.00;97002.28;5026993;28;20411;-70
2023/01/21 12:13:20;;;;;;;;;;;;;;;-2.97;100.00;96999.34;5022147;28;19917;-72
2023/01/21 12:15:45;;;;;;;;;;;;;;;-2.86;100.00;96997.44;5026609;28;19917;-72
2023/01/21 12:18:17;;;;;;;;;;;;;;;-2.13;100.00;97002.22;5032677;28;19928;-72
2023/01/21 12:20:53;;;;;;;;;;;;;;;-2.62;100.00;96997.63;5043389;28;19947;-72
2023/01/21 12:23:28;;;;;;;;;;;;;;;-2.13;100.00;96991.47;5033310;28;19916;-71
2023/01/21 12:25:53;;;;;;;;;;;;;;;-2.28;100.00;96990.78;5054846;28;19917;-71
2023/01/21 12:28:35;;;;;;;;;;;;;;;-2.03;100.00;96989.84;5056008;28;19924;-72
2023/01/21 12:31:00;;;;;;;;;;;;;;;-1.87;100.00;96993.19;5060886;28;19932;-71
2023/01/21 12:33:29;;;;;;;;;;;;;;;-1.69;100.00;96991.72;5004433;28;19917;-71
2023/01/21 12:35:56;;;;;;;;;;;;;;;-1.53;100.00;96993.25;5043756;28;20254;-73
2023/01/21 12:38:28;;;;;;;;;;;;;;;-1.47;100.00;96991.31;5038337;28;20685;-72
2023/01/21 12:40:57;;;;;;;;;;;;;;;-1.89;100.00;96990.00;5043572;28;20344;-71
2023/01/21 12:43:30;;;;;;;;;;;;;;;-1.39;100.00;96993.38;5038892;28;19932;-71
2023/01/21 12:46:01;;;;;;;;;;;;;;;-1.44;100.00;97001.47;5043177;28;20386;-71
2023/01/21 12:48:33;;;;;;;;;;;;;;;-1.88;100.00;96995.09;5043568;28;19916;-71